sensor_id;sensor_type;location;lat;lon;timestamp;pressure;altitude;pressure_sealevel;temperature;humidity
66945;BME280;53853;51.982;5.928;2023-11-21T00:00:56;100946.41;;;10.01;85.70
66945;BME280;53853;51.982;5.928;2023-11-21T00:03:28;100942.91;;;10.00;86.11
66945;BME280;53853;51.982;5.928;2023-11-21T00:06:00;100943.75;;;10.01;86.26
66945;BME280;53853;51.982;5.928;2023-11-21T00:08:30;100937.88;;;9.97;86.09
66945;BME280;53853;51.982;5.928;2023-11-21T00:11:03;100945.16;;;9.95;85.95
66945;BME280;53853;51.982;5.928;2023-11-21T00:13:33;100948.81;;;9.94;86.13
66945;BME280;53853;51.982;5.928;2023-11-21T00:16:05;100954.00;;;9.95;86.15
66945;BME280;53853;51.982;5.928;2023-11-21T00:18:35;100955.81;;;9.95;86.30
66945;BME280;53853;51.982;5.928;2023-11-21T00:21:05;100957.78;;;9.93;85.90
66945;BME280;53853;51.982;5.928;2023-11-21T00:23:35;100962.53;;;9.89;85.54
66945;BME280;53853;51.982;5.928;2023-11-21T00:26:08;100960.16;;;9.86;85.43
66945;BME280;53853;51.982;5.928;2023-11-21T00:28:38;100963.81;;;9.85;85.62
66945;BME280;53853;51.982;5.928;2023-11-21T00:31:08;100966.50;;;9.85;85.98
66945;BME280;53853;51.982;5.928;2023-11-21T00:33:38;100966.78;;;9.82;85.56
66945;BME280;53853;51.982;5.928;2023-11-21T00:36:09;100964.25;;;9.81;85.61
66945;BME280;53853;51.982;5.928;2023-11-21T00:38:39;100971.22;;;9.82;85.67
66945;BME280;53853;51.982;5.928;2023-11-21T00:41:11;100963.81;;;9.85;86.08
66945;BME280;53853;51.982;5.928;2023-11-21T00:43:41;100966.34;;;9.87;86.20
66945;BME280;53853;51.982;5.928;2023-11-21T00:46:11;100965.19;;;9.89;86.43
66945;BME280;53853;51.982;5.928;2023-11-21T00:48:41;100973.78;;;9.93;86.50
66945;BME280;53853;51.982;5.928;2023-11-21T00:51:11;100969.97;;;9.95;86.52
66945;BME280;53853;51.982;5.928;2023-11-21T00:53:41;100969.81;;;9.97;86.60
66945;BME280;53853;51.982;5.928;2023-11-21T00:56:14;100976.56;;;10.01;86.88
66945;BME280;53853;51.982;5.928;2023-11-21T00:58:43;100975.25;;;10.05;86.99
66945;BME280;53853;51.982;5.928;2023-11-21T01:01:16;100988.28;;;10.08;86.97
66945;BME280;53853;51.982;5.928;2023-11-21T01:03:46;100990.66;;;10.11;87.08
66945;BME280;53853;51.982;5.928;2023-11-21T01:06:16;100995.03;;;10.12;86.81
66945;BME280;53853;51.982;5.928;2023-11-21T01:08:46;101003.03;;;10.12;86.44
66945;BME280;53853;51.982;5.928;2023-11-21T01:11:19;101001.31;;;10.11;86.34
66945;BME280;53853;51.982;5.928;2023-11-21T01:13:48;101000.34;;;10.12;86.28
66945;BME280;53853;51.982;5.928;2023-11-21T01:16:19;101002.03;;;10.13;86.38
66945;BME280;53853;51.982;5.928;2023-11-21T01:18:49;101007.91;;;10.17;86.88
66945;BME280;53853;51.982;5.928;2023-11-21T01:21:19;101014.75;;;10.20;86.88
66945;BME280;53853;51.982;5.928;2023-11-21T01:23:49;101014.63;;;10.21;86.88
66945;BME280;53853;51.982;5.928;2023-11-21T01:26:22;101018.69;;;10.25;87.20
66945;BME280;53853;51.982;5.928;2023-11-21T01:28:51;101022.91;;;10.28;87.19
66945;BME280;53853;51.982;5.928;2023-11-21T01:31:21;101029.88;;;10.29;87.48
66945;BME280;53853;51.982;5.928;2023-11-21T01:33:54;101022.63;;;10.31;87.74
66945;BME280;53853;51.982;5.928;2023-11-21T01:36:29;101032.25;;;10.32;88.13
66945;BME280;53853;51.982;5.928;2023-11-21T01:38:59;101033.03;;;10.34;88.01
66945;BME280;53853;51.982;5.928;2023-11-21T01:41:32;101036.22;;;10.38;87.95
66945;BME280;53853;51.982;5.928;2023-11-21T01:44:03;101040.41;;;10.40;87.78
66945;BME280;53853;51.982;5.928;2023-11-21T01:46:34;101037.59;;;10.42;87.88
66945;BME280;53853;51.982;5.928;2023-11-21T01:49:04;101029.47;;;10.43;87.63
66945;BME280;53853;51.982;5.928;2023-11-21T01:51:37;101033.00;;;10.44;87.90
66945;BME280;53853;51.982;5.928;2023-11-21T01:54:07;101031.84;;;10.46;87.83
66945;BME280;53853;51.982;5.928;2023-11-21T01:56:41;101029.19;;;10.46;88.59
66945;BME280;53853;51.982;5.928;2023-11-21T01:59:11;101031.16;;;10.44;88.72
66945;BME280;53853;51.982;5.928;2023-11-21T02:01:42;101025.81;;;10.44;88.96
66945;BME280;53853;51.982;5.928;2023-11-21T02:04:12;101031.84;;;10.46;88.98
66945;BME280;53853;51.982;5.928;2023-11-21T02:06:42;101036.19;;;10.47;89.17
66945;BME280;53853;51.982;5.928;2023-11-21T02:09:12;101033.69;;;10.46;88.87
66945;BME280;53853;51.982;5.928;2023-11-21T02:11:46;101037.16;;;10.46;89.41
66945;BME280;53853;51.982;5.928;2023-11-21T02:14:16;101038.19;;;10.45;89.39
66945;BME280;53853;51.982;5.928;2023-11-21T02:16:47;101035.66;;;10.44;89.10
66945;BME280;53853;51.982;5.928;2023-11-21T02:19:19;101045.16;;;10.46;88.91
66945;BME280;53853;51.982;5.928;2023-11-21T02:21:52;101042.50;;;10.46;89.04
66945;BME280;53853;51.982;5.928;2023-11-21T02:24:25;101045.31;;;10.45;89.41
66945;BME280;53853;51.982;5.928;2023-11-21T02:26:54;101051.63;;;10.44;89.43
66945;BME280;53853;51.982;5.928;2023-11-21T02:29:24;101052.47;;;10.44;88.84
66945;BME280;53853;51.982;5.928;2023-11-21T02:31:55;101057.94;;;10.43;89.38
66945;BME280;53853;51.982;5.928;2023-11-21T02:34:26;101059.78;;;10.42;89.79
66945;BME280;53853;51.982;5.928;2023-11-21T02:36:56;101064.25;;;10.42;90.19
66945;BME280;53853;51.982;5.928;2023-11-21T02:39:29;101059.78;;;10.42;89.68
66945;BME280;53853;51.982;5.928;2023-11-21T02:41:58;101063.13;;;10.44;90.02
66945;BME280;53853;51.982;5.928;2023-11-21T02:44:28;101056.09;;;10.43;90.18
66945;BME280;53853;51.982;5.928;2023-11-21T02:46:58;101052.63;;;10.43;90.05
66945;BME280;53853;51.982;5.928;2023-11-21T02:49:28;101059.78;;;10.42;90.51
66945;BME280;53853;51.982;5.928;2023-11-21T02:51:58;101065.09;;;10.42;90.35
66945;BME280;53853;51.982;5.928;2023-11-21T02:54:30;101066.06;;;10.41;90.38
66945;BME280;53853;51.982;5.928;2023-11-21T02:57:00;101064.53;;;10.39;90.91
66945;BME280;53853;51.982;5.928;2023-11-21T02:59:30;101060.06;;;10.39;91.18
66945;BME280;53853;51.982;5.928;2023-11-21T03:02:00;101057.53;;;10.38;91.11
66945;BME280;53853;51.982;5.928;2023-11-21T03:04:30;101060.06;;;10.39;91.27
66945;BME280;53853;51.982;5.928;2023-11-21T03:07:01;101056.69;;;10.37;91.38
66945;BME280;53853;51.982;5.928;2023-11-21T03:09:34;101063.69;;;10.38;91.15
66945;BME280;53853;51.982;5.928;2023-11-21T03:12:05;101060.06;;;10.39;90.19
66945;BME280;53853;51.982;5.928;2023-11-21T03:14:35;101060.59;;;10.43;89.73
66945;BME280;53853;51.982;5.928;2023-11-21T03:17:05;101063.28;;;10.43;89.28
66945;BME280;53853;51.982;5.928;2023-11-21T03:19:35;101067.47;;;10.45;89.17
66945;BME280;53853;51.982;5.928;2023-11-21T03:22:05;101069.56;;;10.42;89.83
66945;BME280;53853;51.982;5.928;2023-11-21T03:24:38;101081.09;;;10.42;89.84
66945;BME280;53853;51.982;5.928;2023-11-21T03:27:07;101077.03;;;10.38;90.07
66945;BME280;53853;51.982;5.928;2023-11-21T03:29:38;101071.00;;;10.36;90.72
66945;BME280;53853;51.982;5.928;2023-11-21T03:32:08;101073.66;;;10.36;90.54
66945;BME280;53853;51.982;5.928;2023-11-21T03:34:53;101083.03;;;10.40;90.16
66945;BME280;53853;51.982;5.928;2023-11-21T03:37:25;101084.72;;;10.41;89.87
66945;BME280;53853;51.982;5.928;2023-11-21T03:39:58;101095.38;;;10.41;89.74
66945;BME280;53853;51.982;5.928;2023-11-21T03:42:28;101087.69;;;10.38;89.49
66945;BME280;53853;51.982;5.928;2023-11-21T03:44:57;101087.53;;;10.40;90.05
66945;BME280;53853;51.982;5.928;2023-11-21T03:47:28;101087.53;;;10.40;90.49
66945;BME280;53853;51.982;5.928;2023-11-21T03:49:58;101084.72;;;10.41;90.57
66945;BME280;53853;51.982;5.928;2023-11-21T03:52:28;101089.09;;;10.42;90.58
66945;BME280;53853;51.982;5.928;2023-11-21T03:55:03;101086.41;;;10.42;90.49
66945;BME280;53853;51.982;5.928;2023-11-21T03:57:33;101077.72;;;10.40;90.43
66945;BME280;53853;51.982;5.928;2023-11-21T04:00:06;101093.41;;;10.43;90.55
66945;BME280;53853;51.982;5.928;2023-11-21T04:02:39;101096.94;;;10.44;89.54
66945;BME280;53853;51.982;5.928;2023-11-21T04:05:09;101089.78;;;10.44;89.36
66945;BME280;53853;51.982;5.928;2023-11-21T04:07:39;101094.28;;;10.44;88.92
66945;BME280;53853;51.982;5.928;2023-11-21T04:10:11;101103.09;;;10.44;88.94
66945;BME280;53853;51.982;5.928;2023-11-21T04:12:42;101103.09;;;10.44;89.36
66945;BME280;53853;51.982;5.928;2023-11-21T04:15:13;101101.41;;;10.43;90.20
66945;BME280;53853;51.982;5.928;2023-11-21T04:17:43;101108.41;;;10.44;90.33
66945;BME280;53853;51.982;5.928;2023-11-21T04:20:12;101114.44;;;10.46;90.42
66945;BME280;53853;51.982;5.928;2023-11-21T04:22:45;101111.09;;;10.44;90.45
66945;BME280;53853;51.982;5.928;2023-11-21T04:25:18;101121.75;;;10.44;90.94
66945;BME280;53853;51.982;5.928;2023-11-21T04:27:50;101121.75;;;10.44;90.93
66945;BME280;53853;51.982;5.928;2023-11-21T04:30:20;101130.72;;;10.43;91.12
66945;BME280;53853;51.982;5.928;2023-11-21T04:32:49;101134.38;;;10.42;90.91
66945;BME280;53853;51.982;5.928;2023-11-21T04:35:19;101133.50;;;10.42;90.58
66945;BME280;53853;51.982;5.928;2023-11-21T04:37:49;101134.22;;;10.44;89.94
66945;BME280;53853;51.982;5.928;2023-11-21T04:40:22;101133.09;;;10.46;90.14
66945;BME280;53853;51.982;5.928;2023-11-21T04:42:49;101146.41;;;10.46;89.90
66945;BME280;53853;51.982;5.928;2023-11-21T04:45:19;101151.75;;;10.46;90.03
66945;BME280;53853;51.982;5.928;2023-11-21T04:47:49;101150.78;;;10.47;90.22
66945;BME280;53853;51.982;5.928;2023-11-21T04:50:19;101151.06;;;10.44;90.26
66945;BME280;53853;51.982;5.928;2023-11-21T04:52:49;101160.88;;;10.44;90.75
66945;BME280;53853;51.982;5.928;2023-11-21T04:55:22;101166.34;;;10.42;90.88
66945;BME280;53853;51.982;5.928;2023-11-21T04:57:54;101169.16;;;10.41;90.94
66945;BME280;53853;51.982;5.928;2023-11-21T05:00:24;101166.50;;;10.41;91.07
66945;BME280;53853;51.982;5.928;2023-11-21T05:02:54;101173.75;;;10.39;91.08
66945;BME280;53853;51.982;5.928;2023-11-21T05:05:24;101167.59;;;10.38;91.33
66945;BME280;53853;51.982;5.928;2023-11-21T05:07:54;101164.25;;;10.36;91.50
66945;BME280;53853;51.982;5.928;2023-11-21T05:10:26;101165.22;;;10.35;91.68
66945;BME280;53853;51.982;5.928;2023-11-21T05:12:56;101171.38;;;10.36;91.70
66945;BME280;53853;51.982;5.928;2023-11-21T05:15:26;101176.88;;;10.34;91.93
66945;BME280;53853;51.982;5.928;2023-11-21T05:17:57;101181.59;;;10.30;91.57
66945;BME280;53853;51.982;5.928;2023-11-21T05:20:27;101174.88;;;10.26;91.65
66945;BME280;53853;51.982;5.928;2023-11-21T05:22:57;101176.66;;;10.26;91.50
66945;BME280;53853;51.982;5.928;2023-11-21T05:25:30;101184.25;;;10.21;91.23
66945;BME280;53853;51.982;5.928;2023-11-21T05:28:00;101187.03;;;10.19;91.43
66945;BME280;53853;51.982;5.928;2023-11-21T05:30:30;101191.81;;;10.15;91.49
66945;BME280;53853;51.982;5.928;2023-11-21T05:33:00;101192.66;;;10.16;91.45
66945;BME280;53853;51.982;5.928;2023-11-21T05:35:30;101196.88;;;10.19;91.69
66945;BME280;53853;51.982;5.928;2023-11-21T05:38:00;101199.41;;;10.20;91.58
66945;BME280;53853;51.982;5.928;2023-11-21T05:40:32;101198.53;;;10.20;91.64
66945;BME280;53853;51.982;5.928;2023-11-21T05:43:03;101199.41;;;10.20;91.60
66945;BME280;53853;51.982;5.928;2023-11-21T05:45:33;101206.38;;;10.21;91.34
66945;BME280;53853;51.982;5.928;2023-11-21T05:48:04;101209.91;;;10.22;91.43
66945;BME280;53853;51.982;5.928;2023-11-21T05:50:34;101214.25;;;10.23;91.43
66945;BME280;53853;51.982;5.928;2023-11-21T05:53:04;101213.28;;;10.24;90.70
66945;BME280;53853;51.982;5.928;2023-11-21T05:55:39;101222.97;;;10.25;90.51
66945;BME280;53853;51.982;5.928;2023-11-21T05:58:06;101220.97;;;10.27;90.52
66945;BME280;53853;51.982;5.928;2023-11-21T06:00:36;101234.16;;;10.28;90.53
66945;BME280;53853;51.982;5.928;2023-11-21T06:03:06;101228.69;;;10.30;90.47
66945;BME280;53853;51.982;5.928;2023-11-21T06:05:36;101232.06;;;10.32;90.38
66945;BME280;53853;51.982;5.928;2023-11-21T06:08:06;101240.06;;;10.32;90.40
66945;BME280;53853;51.982;5.928;2023-11-21T06:10:40;101238.38;;;10.31;90.55
66945;BME280;53853;51.982;5.928;2023-11-21T06:13:10;101249.78;;;10.33;91.06
66945;BME280;53853;51.982;5.928;2023-11-21T06:15:41;101240.06;;;10.32;91.12
66945;BME280;53853;51.982;5.928;2023-11-21T06:18:10;101243.72;;;10.31;91.42
66945;BME280;53853;51.982;5.928;2023-11-21T06:20:41;101253.38;;;10.32;91.41
66945;BME280;53853;51.982;5.928;2023-11-21T06:23:10;101250.84;;;10.30;91.46
66945;BME280;53853;51.982;5.928;2023-11-21T06:25:43;101251.72;;;10.31;90.70
66945;BME280;53853;51.982;5.928;2023-11-21T06:28:13;101256.94;;;10.32;90.52
66945;BME280;53853;51.982;5.928;2023-11-21T06:30:44;101256.78;;;10.34;90.79
66945;BME280;53853;51.982;5.928;2023-11-21T06:33:15;101260.28;;;10.35;91.17
66945;BME280;53853;51.982;5.928;2023-11-21T06:35:45;101262.94;;;10.35;91.58
66945;BME280;53853;51.982;5.928;2023-11-21T06:38:16;101256.94;;;10.32;91.18
66945;BME280;53853;51.982;5.928;2023-11-21T06:40:49;101269.13;;;10.35;91.05
66945;BME280;53853;51.982;5.928;2023-11-21T06:43:19;101270.81;;;10.36;91.31
66945;BME280;53853;51.982;5.928;2023-11-21T06:45:49;101269.81;;;10.37;90.97
66945;BME280;53853;51.982;5.928;2023-11-21T06:48:19;101277.66;;;10.39;90.90
66945;BME280;53853;51.982;5.928;2023-11-21T06:50:48;101274.88;;;10.40;90.51
66945;BME280;53853;51.982;5.928;2023-11-21T06:53:19;101277.38;;;10.42;90.31
66945;BME280;53853;51.982;5.928;2023-11-21T06:55:51;101277.38;;;10.42;90.81
66945;BME280;53853;51.982;5.928;2023-11-21T06:58:21;101286.94;;;10.44;91.65
66945;BME280;53853;51.982;5.928;2023-11-21T07:00:51;101284.97;;;10.46;91.46
66945;BME280;53853;51.982;5.928;2023-11-21T07:03:21;101287.63;;;10.46;91.09
66945;BME280;53853;51.982;5.928;2023-11-21T07:05:51;101291.16;;;10.47;90.82
66945;BME280;53853;51.982;5.928;2023-11-21T07:08:20;101289.34;;;10.47;90.96
66945;BME280;53853;51.982;5.928;2023-11-21T07:10:53;101297.88;;;10.51;91.29
66945;BME280;53853;51.982;5.928;2023-11-21T07:13:23;101306.03;;;10.49;91.66
66945;BME280;53853;51.982;5.928;2023-11-21T07:15:52;101318.22;;;10.52;92.00
66945;BME280;53853;51.982;5.928;2023-11-21T07:18:22;101317.25;;;10.53;92.07
66945;BME280;53853;51.982;5.928;2023-11-21T07:20:52;101326.09;;;10.54;91.72
66945;BME280;53853;51.982;5.928;2023-11-21T07:23:22;101331.44;;;10.54;91.80
66945;BME280;53853;51.982;5.928;2023-11-21T07:25:55;101342.09;;;10.54;92.00
66945;BME280;53853;51.982;5.928;2023-11-21T07:28:25;101338.41;;;10.55;91.71
66945;BME280;53853;51.982;5.928;2023-11-21T07:30:55;101344.75;;;10.54;91.94
66945;BME280;53853;51.982;5.928;2023-11-21T07:33:26;101345.56;;;10.54;92.17
66945;BME280;53853;51.982;5.928;2023-11-21T07:35:56;101350.63;;;10.57;92.52
66945;BME280;53853;51.982;5.928;2023-11-21T07:38:26;101346.28;;;10.56;92.64
66945;BME280;53853;51.982;5.928;2023-11-21T07:40:58;101352.47;;;10.57;92.80
66945;BME280;53853;51.982;5.928;2023-11-21T07:43:28;101359.47;;;10.58;92.79
66945;BME280;53853;51.982;5.928;2023-11-21T07:46:01;101356.53;;;10.61;92.97
66945;BME280;53853;51.982;5.928;2023-11-21T07:48:32;101356.25;;;10.64;92.80
66945;BME280;53853;51.982;5.928;2023-11-21T07:51:03;101368.47;;;10.66;92.80
66945;BME280;53853;51.982;5.928;2023-11-21T07:53:33;101368.19;;;10.69;92.60
66945;BME280;53853;51.982;5.928;2023-11-21T07:56:08;101373.41;;;10.71;92.62
66945;BME280;53853;51.982;5.928;2023-11-21T07:58:38;101373.41;;;10.71;92.93
66945;BME280;53853;51.982;5.928;2023-11-21T08:01:08;101381.13;;;10.74;92.92
66945;BME280;53853;51.982;5.928;2023-11-21T08:03:38;101390.78;;;10.75;92.38
66945;BME280;53853;51.982;5.928;2023-11-21T08:06:08;101392.22;;;10.79;92.58
66945;BME280;53853;51.982;5.928;2023-11-21T08:08:38;101393.19;;;10.78;92.69
66945;BME280;53853;51.982;5.928;2023-11-21T08:11:12;101393.31;;;10.77;92.89
66945;BME280;53853;51.982;5.928;2023-11-21T08:13:43;101404.84;;;10.77;93.30
66945;BME280;53853;51.982;5.928;2023-11-21T08:16:12;101411.56;;;10.81;93.54
66945;BME280;53853;51.982;5.928;2023-11-21T08:18:43;101407.66;;;10.85;93.40
66945;BME280;53853;51.982;5.928;2023-11-21T08:21:13;101419.88;;;10.88;92.73
66945;BME280;53853;51.982;5.928;2023-11-21T08:23:43;101419.75;;;10.90;92.52
66945;BME280;53853;51.982;5.928;2023-11-21T08:26:16;101424.91;;;10.91;92.15
66945;BME280;53853;51.982;5.928;2023-11-21T08:28:46;101427.31;;;10.94;91.75
66945;BME280;53853;51.982;5.928;2023-11-21T08:31:16;101435.16;;;10.96;91.48
66945;BME280;53853;51.982;5.928;2023-11-21T08:33:46;101435.91;;;10.98;91.40
66945;BME280;53853;51.982;5.928;2023-11-21T08:36:16;101441.94;;;11.00;91.01
66945;BME280;53853;51.982;5.928;2023-11-21T08:38:45;101449.78;;;11.01;91.31
66945;BME280;53853;51.982;5.928;2023-11-21T08:41:18;101444.19;;;11.04;91.23
66945;BME280;53853;51.982;5.928;2023-11-21T08:43:49;101447.53;;;11.06;91.08
66945;BME280;53853;51.982;5.928;2023-11-21T08:46:20;101449.09;;;11.09;91.21
66945;BME280;53853;51.982;5.928;2023-11-21T08:48:52;101452.34;;;11.13;90.95
66945;BME280;53853;51.982;5.928;2023-11-21T08:51:22;101456.56;;;11.15;91.13
66945;BME280;53853;51.982;5.928;2023-11-21T08:53:52;101454.44;;;11.19;91.19
66945;BME280;53853;51.982;5.928;2023-11-21T08:56:28;101460.19;;;11.24;92.05
66945;BME280;53853;51.982;5.928;2023-11-21T08:58:58;101455.47;;;11.28;92.32
66945;BME280;53853;51.982;5.928;2023-11-21T09:01:29;101456.97;;;11.30;92.46
66945;BME280;53853;51.982;5.928;2023-11-21T09:03:59;101459.38;;;11.33;92.84
66945;BME280;53853;51.982;5.928;2023-11-21T09:06:29;101462.59;;;11.37;92.69
66945;BME280;53853;51.982;5.928;2023-11-21T09:08:59;101466.97;;;11.38;92.81
66945;BME280;53853;51.982;5.928;2023-11-21T09:11:34;101472.84;;;11.41;92.81
66945;BME280;53853;51.982;5.928;2023-11-21T09:14:04;101471.19;;;11.40;91.91
66945;BME280;53853;51.982;5.928;2023-11-21T09:16:34;101483.53;;;11.41;92.01
66945;BME280;53853;51.982;5.928;2023-11-21T09:19:04;101486.06;;;11.43;92.18
66945;BME280;53853;51.982;5.928;2023-11-21T09:21:34;101492.00;;;11.47;91.76
66945;BME280;53853;51.982;5.928;2023-11-21T09:24:04;101495.63;;;11.46;91.21
66945;BME280;53853;51.982;5.928;2023-11-21T09:26:38;101505.47;;;11.45;91.80
66945;BME280;53853;51.982;5.928;2023-11-21T09:29:08;101502.06;;;11.43;91.35
66945;BME280;53853;51.982;5.928;2023-11-21T09:31:38;101506.59;;;11.42;91.90
66945;BME280;53853;51.982;5.928;2023-11-21T09:34:09;101512.75;;;11.43;91.86
66945;BME280;53853;51.982;5.928;2023-11-21T09:36:39;101514.31;;;11.46;91.39
66945;BME280;53853;51.982;5.928;2023-11-21T09:39:08;101521.03;;;11.50;91.55
66945;BME280;53853;51.982;5.928;2023-11-21T09:41:46;101525.13;;;11.54;91.92
66945;BME280;53853;51.982;5.928;2023-11-21T09:44:20;101524.28;;;11.53;90.95
66945;BME280;53853;51.982;5.928;2023-11-21T09:46:52;101532.72;;;11.58;91.25
66945;BME280;53853;51.982;5.928;2023-11-21T09:49:24;101531.75;;;11.59;91.59
66945;BME280;53853;51.982;5.928;2023-11-21T09:51:56;101530.88;;;11.59;91.77
66945;BME280;53853;51.982;5.928;2023-11-21T09:54:26;101540.44;;;11.62;92.17
66945;BME280;53853;51.982;5.928;2023-11-21T09:57:01;101545.25;;;11.68;92.63
66945;BME280;53853;51.982;5.928;2023-11-21T09:59:32;101552.84;;;11.72;92.98
66945;BME280;53853;51.982;5.928;2023-11-21T10:02:02;101553.53;;;11.74;93.21
66945;BME280;53853;51.982;5.928;2023-11-21T10:04:32;101557.63;;;11.78;93.37
66945;BME280;53853;51.982;5.928;2023-11-21T10:07:02;101554.22;;;11.86;93.37
66945;BME280;53853;51.982;5.928;2023-11-21T10:09:36;101558.75;;;11.95;93.29
66945;BME280;53853;51.982;5.928;2023-11-21T10:12:10;101554.97;;;12.08;93.58
66945;BME280;53853;51.982;5.928;2023-11-21T10:14:42;101559.16;;;12.20;94.04
66945;BME280;53853;51.982;5.928;2023-11-21T10:17:13;101565.59;;;12.27;94.25
66945;BME280;53853;51.982;5.928;2023-11-21T10:19:47;101567.56;;;12.35;94.83
66945;BME280;53853;51.982;5.928;2023-11-21T10:22:17;101565.16;;;12.42;94.78
66945;BME280;53853;51.982;5.928;2023-11-21T10:24:46;101572.19;;;12.43;93.90
66945;BME280;53853;51.982;5.928;2023-11-21T10:27:19;101574.59;;;12.46;94.26
66945;BME280;53853;51.982;5.928;2023-11-21T10:29:52;101579.78;;;12.47;94.58
66945;BME280;53853;51.982;5.928;2023-11-21T10:32:22;101581.34;;;12.50;94.83
66945;BME280;53853;51.982;5.928;2023-11-21T10:34:59;101584.72;;;12.52;94.73
66945;BME280;53853;51.982;5.928;2023-11-21T10:37:33;101585.53;;;12.53;94.31
66945;BME280;53853;51.982;5.928;2023-11-21T10:40:04;101583.16;;;12.59;94.39
66945;BME280;53853;51.982;5.928;2023-11-21T10:42:36;101584.41;;;12.65;94.24
66945;BME280;53853;51.982;5.928;2023-11-21T10:45:07;101586.78;;;12.68;93.61
66945;BME280;53853;51.982;5.928;2023-11-21T10:47:41;101585.94;;;12.67;92.62
66945;BME280;53853;51.982;5.928;2023-11-21T10:50:11;101593.81;;;12.69;92.76
66945;BME280;53853;51.982;5.928;2023-11-21T10:52:42;101594.66;;;12.69;92.58
66945;BME280;53853;51.982;5.928;2023-11-21T10:55:17;101602.38;;;12.73;93.21
66945;BME280;53853;51.982;5.928;2023-11-21T10:57:53;101606.03;;;12.72;93.26
66945;BME280;53853;51.982;5.928;2023-11-21T11:00:24;101597.19;;;12.71;93.06
66945;BME280;53853;51.982;5.928;2023-11-21T11:02:54;101607.88;;;12.71;92.98
66945;BME280;53853;51.982;5.928;2023-11-21T11:05:27;101614.22;;;12.70;92.87
66945;BME280;53853;51.982;5.928;2023-11-21T11:08:00;101608.16;;;12.68;92.40
66945;BME280;53853;51.982;5.928;2023-11-21T11:10:32;101617.31;;;12.65;92.32
66945;BME280;53853;51.982;5.928;2023-11-21T11:13:06;101619.69;;;12.68;92.90
66945;BME280;53853;51.982;5.928;2023-11-21T11:15:36;101628.00;;;12.65;92.99
66945;BME280;53853;51.982;5.928;2023-11-21T11:18:06;101639.00;;;12.62;93.01
66945;BME280;53853;51.982;5.928;2023-11-21T11:20:37;101646.19;;;12.52;92.34
66945;BME280;53853;51.982;5.928;2023-11-21T11:23:20;101652.25;;;12.44;91.81
66945;BME280;53853;51.982;5.928;2023-11-21T11:26:06;101649.59;;;12.35;91.01
66945;BME280;53853;51.982;5.928;2023-11-21T11:28:47;101648.31;;;12.29;90.74
66945;BME280;53853;51.982;5.928;2023-11-21T11:31:26;101657.63;;;12.25;90.45
66945;BME280;53853;51.982;5.928;2023-11-21T11:33:57;101659.00;;;12.19;90.40
66945;BME280;53853;51.982;5.928;2023-11-21T11:36:34;101667.03;;;12.19;90.25
66945;BME280;53853;51.982;5.928;2023-11-21T11:39:27;101659.88;;;12.20;90.33
66945;BME280;53853;51.982;5.928;2023-11-21T11:41:58;101660.03;;;12.18;90.46
66945;BME280;53853;51.982;5.928;2023-11-21T11:44:49;101662.69;;;12.18;90.92
66945;BME280;53853;51.982;5.928;2023-11-21T11:47:23;101664.63;;;12.16;90.48
66945;BME280;53853;51.982;5.928;2023-11-21T11:50:05;101673.66;;;12.15;90.39
66945;BME280;53853;51.982;5.928;2023-11-21T11:52:41;101667.31;;;12.16;90.36
66945;BME280;53853;51.982;5.928;2023-11-21T11:55:12;101666.34;;;12.17;90.54
66945;BME280;53853;51.982;5.928;2023-11-21T11:57:45;101677.03;;;12.17;89.25
66945;BME280;53853;51.982;5.928;2023-11-21T12:00:21;101679.97;;;12.14;88.86
66945;BME280;53853;51.982;5.928;2023-11-21T12:02:53;101679.69;;;12.17;89.56
66945;BME280;53853;51.982;5.928;2023-11-21T12:05:25;101683.78;;;12.21;89.59
66945;BME280;53853;51.982;5.928;2023-11-21T12:07:56;101687.03;;;12.25;89.78
66945;BME280;53853;51.982;5.928;2023-11-21T12:10:28;101686.00;;;12.26;90.13
66945;BME280;53853;51.982;5.928;2023-11-21T12:12:59;101692.91;;;12.28;90.23
66945;BME280;53853;51.982;5.928;2023-11-21T12:15:32;101703.75;;;12.27;90.17
66945;BME280;53853;51.982;5.928;2023-11-21T12:18:03;101704.59;;;12.27;90.22
66945;BME280;53853;51.982;5.928;2023-11-21T12:20:33;101706.41;;;12.27;90.37
66945;BME280;53853;51.982;5.928;2023-11-21T12:23:06;101711.91;;;12.25;90.69
66945;BME280;53853;51.982;5.928;2023-11-21T12:25:37;101715.56;;;12.24;90.13
66945;BME280;53853;51.982;5.928;2023-11-21T12:28:08;101728.50;;;12.19;89.85
66945;BME280;53853;51.982;5.928;2023-11-21T12:30:41;101732.44;;;12.15;90.02
66945;BME280;53853;51.982;5.928;2023-11-21T12:33:11;101731.16;;;12.09;89.33
66945;BME280;53853;51.982;5.928;2023-11-21T12:35:44;101726.50;;;12.02;88.88
66945;BME280;53853;51.982;5.928;2023-11-21T12:38:14;101726.63;;;12.00;89.09
66945;BME280;53853;51.982;5.928;2023-11-21T12:40:45;101735.22;;;12.04;89.02
66945;BME280;53853;51.982;5.928;2023-11-21T12:43:15;101732.41;;;12.05;89.00
66945;BME280;53853;51.982;5.928;2023-11-21T12:45:49;101732.97;;;11.99;88.57
66945;BME280;53853;51.982;5.928;2023-11-21T12:48:19;101740.41;;;11.95;87.78
66945;BME280;53853;51.982;5.928;2023-11-21T12:50:51;101742.75;;;11.89;87.44
66945;BME280;53853;51.982;5.928;2023-11-21T12:53:22;101741.34;;;11.85;87.32
66945;BME280;53853;51.982;5.928;2023-11-21T12:55:52;101742.19;;;11.85;87.91
66945;BME280;53853;51.982;5.928;2023-11-21T12:58:25;101742.03;;;11.87;87.77
66945;BME280;53853;51.982;5.928;2023-11-21T13:01:00;101743.00;;;11.86;87.63
66945;BME280;53853;51.982;5.928;2023-11-21T13:03:30;101743.28;;;11.83;86.81
66945;BME280;53853;51.982;5.928;2023-11-21T13:06:01;101742.44;;;11.82;87.07
66945;BME280;53853;51.982;5.928;2023-11-21T13:08:31;101745.94;;;11.83;87.63
66945;BME280;53853;51.982;5.928;2023-11-21T13:11:01;101740.63;;;11.83;87.67